World of Logs combat log analyzer allows gamers to save, share and analyze their raiding experiences conveniently and thoroughly in the Blizzard MMO World of Warcraft. If you're new here, make sure you check out the tour for a 1 minute introduction. If you have any questions, we're happy to answer them on the forums.

DPS HPS
Odyn
Helya
Guarm
Reports for Twilight Ascendant Council - statistics
# Date Time Damage DPS Guild Realm
501 25 Jun 2012 02:09 23.88M 184997.2 Sacred Vow US-Sargeras
502 24 Apr 2012 02:09 24.70M 191075.0 AIAO EU-Draenor
503 27 Jul 2012 02:09 24.43M 188967.1 Créatures, Evenom & Exhorder's Logs EU-Ysondre
504 19 Mar 2012 02:09 24.76M 191471.9 Obscurita Eterna EU-Forscherliga
505 24 Jun 2012 02:09 24.38M 188560.3 Fiuhs Logz US-Stormrage
506 24 Jun 2012 02:09 24.38M 188477.2 Bagel US-Stormrage
507 25 Aug 2012 02:09 24.37M 188362.3 CBEPXHOBA EU-Tarren Mill
508 17 May 2012 02:09 24.48M 189015.5 Abraxas US-Dath'Remar
509 14 Aug 2012 02:09 24.49M 188980.4 Ритм Земли EU-Ясеневый лес
510 18 Mar 2012 02:09 24.82M 191401.3 Mav's Logs US-Area 52
511 14 May 2012 02:09 23.96M 184717.3 Corruptio Nex EU-Blackhand
512 20 Jun 2012 02:09 24.75M 190801.9 Магнум EU-Гордунни
513 23 Aug 2012 02:09 24.01M 185107.4 Gardh en Teliad - Chrischs SG EU-Kel'Thuzad
514 06 May 2012 02:09 25.91M 199732.7 Mandrailogs EU-Kazzak
515 22 Aug 2012 02:09 24.68M 190191.9 123 EU-Ясеневый лес
516 17 May 2012 02:09 24.49M 188671.7 Wiping As Intended EU-Draenor
517 02 May 2012 02:09 24.04M 185121.2 Raidplusplus US-Cho'gall
518 20 Aug 2012 02:09 24.66M 189902.3 Zarakì US-Stormrage
519 04 Jun 2012 02:09 25.59M 197033.5 Lamdeeze log US-Magtheridon
520 10 Apr 2012 02:10 24.96M 192024.8 Entensity US-Stormscale
521 24 Oct 2011 02:10 24.30M 186845.4 Censored EU-Ghostlands
522 11 Jul 2012 02:10 24.32M 186946.4 Nástrandir 10er EU-Kargath
523 19 Aug 2012 02:10 25.30M 194353.7 Inhume EU-Blackmoore
524 16 Aug 2012 02:10 23.94M 183843.7 Framalamamam EU-Azuremyst
525 16 Aug 2012 02:10 23.94M 183840.9 Reds Logs EU-Azuremyst
526 03 May 2012 02:10 24.80M 190351.0 darknesslay US-Illidan
527 14 Jun 2012 02:10 24.12M 185100.3 Reckoning US-Mannoroth
528 28 Mar 2012 02:10 24.53M 188213.3 Kinetic US-Frostmane
529 02 Mar 2012 02:10 24.53M 188012.8 After Life US-Whisperwind
530 08 Mar 2012 02:10 24.33M 186418.0 Alucard Privat Log EU-Nera'thor
531 31 Jul 2012 02:10 24.81M 190115.3 Lunar Eclipse EU-Свежеватель Душ
532 31 Jul 2012 02:10 24.81M 190115.3 Lunar Eclipse EU-Свежеватель Душ
533 12 Apr 2012 02:10 24.73M 189456.5 Brute Loops US-Crushridge
534 09 Feb 2012 02:10 24.32M 186313.7 Project Casual2 US-Haomarush
535 18 Jul 2012 02:10 24.84M 190218.9 Myth EU-Blackmoore
536 20 Oct 2011 02:10 24.08M 184377.3 РусЛегион EU-Гордунни
537 10 May 2012 02:10 24.47M 187239.7 Eternal Life US-Mannoroth
538 09 Jul 2012 02:10 24.90M 190372.0 Gwen Stefani US-Illidan
539 09 Aug 2012 02:10 24.27M 185489.6 Progression US-Stormrage
540 12 Jul 2012 02:10 24.97M 190765.9 Dead's Logs US-Mal'Ganis
541 16 Jul 2012 02:10 24.53M 187420.3 Shake Miracle US-Illidan
542 16 Jul 2012 02:10 24.53M 187414.6 chocolate bunnies US-Illidan
543 17 Apr 2012 02:10 24.14M 184453.7 Minion of Beary US-Archimonde
544 20 Mar 2012 02:10 24.27M 185402.7 Void US-Laughing Skull
545 16 Jul 2012 02:10 24.73M 188882.8 The Bro Code EU-Mannoroth
546 07 Jun 2012 02:10 23.78M 181641.6 Order of Thrones US-Mannoroth
547 02 Aug 2012 02:10 25.03M 191126.4 Гардианс EU-Гордунни
548 23 Aug 2012 02:10 24.71M 188665.6 Fiigdan's Logs US-Area 52
549 20 Aug 2012 02:10 24.50M 187057.1 Pwnanza EU-Kazzak
550 20 Aug 2012 02:10 24.50M 187044.3 Pwnanza EU-Kazzak
551 14 Nov 2011 02:11 24.69M 188467.7 Huge in Japan US-Kil'jaeden
552 25 Jul 2012 02:11 24.92M 190160.4 Endless Waltz US-Dragonmaw
553 27 May 2012 02:11 25.32M 193182.2 no average EU-Arygos
554 19 Apr 2012 02:11 25.19M 192163.5 PowerHouse EU-Neptulon
555 16 Apr 2012 02:11 24.18M 184483.9 Brave New World US-Dath'Remar
556 28 Mar 2012 02:11 24.11M 183871.0 Virtual Insanity US-Azralon
557 22 Feb 2012 02:11 25.07M 191115.4 Echeo's Logs US-Magtheridon
558 28 Apr 2012 02:11 24.49M 186670.8 Ctrl Z US-Blackrock
559 11 Jul 2012 02:11 24.71M 188323.5 Lincoln logs US-Blackhand
560 07 Aug 2012 02:11 24.63M 187629.4 I RULE YOU ALL US-Bronzebeard
561 25 Jun 2012 02:11 24.55M 186933.5 Bridgeburners EU-Emerald Dream
562 16 Apr 2012 02:11 24.29M 184959.5 Litany of Fury US-Thaurissan
563 26 Apr 2012 02:11 24.43M 186028.8 Axis US-Medivh
564 04 Feb 2012 02:11 24.61M 187370.2 Фласок нет EU-Дракономор
565 10 Mar 2012 02:11 24.22M 184352.6 BontaBonta EU-Area 52
566 31 Jan 2012 02:11 24.38M 185527.9 Kranker Stolz EU-Nera'thor
567 22 Mar 2012 02:11 24.48M 186175.1 Annihilus US-Cenarius
568 10 May 2012 02:11 24.60M 187017.9 Robin EU-Гордунни
569 04 Aug 2012 02:11 24.62M 187100.1 Taunt US-Kil'jaeden
570 19 May 2012 02:11 23.78M 180761.5 Easily Distracted US-Stormreaver
571 20 Mar 2012 02:11 24.22M 184086.0 Merithra's logs EU-Dun Modr
572 14 Aug 2012 02:11 23.78M 180654.3 Eternal Life US-Mannoroth
573 07 Aug 2012 02:11 24.81M 188453.7 Лимбо EU-Свежеватель Душ
574 15 Jul 2012 02:11 24.79M 188353.9 Subtle Insanity US-Stormreaver
575 08 May 2012 02:11 24.45M 185683.0 Final Destination EU-Термоштепсель
576 07 Jul 2012 02:11 25.00M 189759.6 Dichotomy US-Turalyon
577 19 May 2012 02:11 24.67M 187244.4 Thisguy US-Turalyon
578 03 Aug 2012 02:11 24.27M 184183.2 Todesflüsterer EU-Blackhand
579 11 Nov 2011 02:11 23.97M 181921.8 eHeroes EU-Thunderhorn
580 15 Aug 2012 02:11 24.48M 185805.2 Schattenkeks EU-Die Nachtwache
581 09 Aug 2012 02:11 23.98M 181955.3 Mauzis Logs EU-Nozdormu
582 06 Mar 2012 02:11 24.18M 183495.2 Infinity EU-Kael'thas
583 30 Apr 2012 02:11 23.82M 180622.9 Sublime EU-Silvermoon
584 15 Aug 2012 02:11 24.48M 185681.2 Mauzis Logs EU-Nozdormu
585 03 May 2012 02:11 24.73M 187525.7 Rune EU-C'Thun
586 06 Jun 2012 02:11 24.37M 184786.1 Pwnanza EU-Kazzak
587 20 Aug 2012 02:11 24.49M 185620.2 Северная Одиссея 2-10 EU-Борейская тундра
588 25 Mar 2012 02:11 24.23M 183597.4 Avalon Tarde EU-Exodar
589 01 Aug 2012 02:12 24.79M 187806.7 Infamy US-Proudmoore
590 14 Aug 2012 02:12 25.06M 189817.4 Vraie US-Zul'jin
591 27 Aug 2012 02:12 24.62M 186421.4 Rlchard's Logs EU-Twisting Nether
592 29 Mar 2012 02:12 23.63M 178916.8 Dysfuct US-Kel'Thuzad
593 13 Aug 2012 02:12 24.32M 184092.8 ensemble EU-Eredar
594 06 Mar 2012 02:12 24.00M 181669.8 Schisms US-Mal'Ganis
595 06 May 2012 02:12 25.04M 189469.4 GDKP Infinitum EU-Neptulon
596 08 Apr 2012 02:12 24.87M 188195.1 Neux US-Skullcrusher
597 08 Apr 2012 02:12 24.87M 188158.1 Get Carried US-Arthas
598 12 Jul 2012 02:12 24.07M 182088.3 Gardh en Teliad - Chrischs SG EU-Kel'Thuzad
599 15 Nov 2011 02:12 23.70M 179272.0 PowerHouse EU-Neptulon
600 04 Jan 2012 02:12 24.30M 183699.3 Apophasis US-Shattered Hand

Please do not close the page with the ad you want to report.

I've posted a guide on how to report misbehaving ads on the forum. Please follow the instructions and help make the internet a safer place. Thanks for you time.